sensor_id;sensor_type;location;lat;lon;timestamp;P1;durP1;ratioP1;P2;durP2;ratioP2
65031;SDS011;51593;55.714;37.436;2022-08-20T00:01:55;30.25;;;18.63;;
65031;SDS011;51593;55.714;37.436;2022-08-20T00:04:23;29.27;;;19.88;;
65031;SDS011;51593;55.714;37.436;2022-08-20T00:06:49;29.75;;;21.08;;
65031;SDS011;51593;55.714;37.436;2022-08-20T00:09:15;37.15;;;22.25;;
65031;SDS011;51593;55.714;37.436;2022-08-20T00:11:41;34.83;;;22.58;;
65031;SDS011;51593;55.714;37.436;2022-08-20T00:14:07;32.58;;;21.20;;
65031;SDS011;51593;55.714;37.436;2022-08-20T00:16:34;35.08;;;22.13;;
65031;SDS011;51593;55.714;37.436;2022-08-20T00:19:03;32.47;;;21.30;;
65031;SDS011;51593;55.714;37.436;2022-08-20T00:21:30;32.00;;;22.27;;
65031;SDS011;51593;55.714;37.436;2022-08-20T00:23:56;30.50;;;20.73;;
65031;SDS011;51593;55.714;37.436;2022-08-20T00:26:22;32.88;;;20.98;;
65031;SDS011;51593;55.714;37.436;2022-08-20T00:28:49;31.90;;;20.83;;
65031;SDS011;51593;55.714;37.436;2022-08-20T00:31:17;30.27;;;19.55;;
65031;SDS011;51593;55.714;37.436;2022-08-20T00:33:44;30.85;;;18.70;;
65031;SDS011;51593;55.714;37.436;2022-08-20T00:36:10;28.55;;;19.20;;
65031;SDS011;51593;55.714;37.436;2022-08-20T00:38:37;31.98;;;19.35;;
65031;SDS011;51593;55.714;37.436;2022-08-20T00:41:05;31.40;;;19.23;;
65031;SDS011;51593;55.714;37.436;2022-08-20T00:43:35;32.53;;;19.88;;
65031;SDS011;51593;55.714;37.436;2022-08-20T00:46:04;26.95;;;18.77;;
65031;SDS011;51593;55.714;37.436;2022-08-20T00:48:33;29.05;;;19.45;;
65031;SDS011;51593;55.714;37.436;2022-08-20T00:51:06;34.10;;;19.17;;
65031;SDS011;51593;55.714;37.436;2022-08-20T00:53:39;33.88;;;18.95;;
65031;SDS011;51593;55.714;37.436;2022-08-20T00:56:06;34.80;;;18.90;;
65031;SDS011;51593;55.714;37.436;2022-08-20T00:58:33;32.75;;;19.85;;
65031;SDS011;51593;55.714;37.436;2022-08-20T01:01:01;29.75;;;19.52;;
65031;SDS011;51593;55.714;37.436;2022-08-20T01:06:12;29.75;;;18.30;;
65031;SDS011;51593;55.714;37.436;2022-08-20T01:08:38;32.55;;;18.38;;
65031;SDS011;51593;55.714;37.436;2022-08-20T01:11:05;34.83;;;19.02;;
65031;SDS011;51593;55.714;37.436;2022-08-20T01:13:40;32.00;;;18.02;;
65031;SDS011;51593;55.714;37.436;2022-08-20T01:16:10;26.55;;;17.40;;
65031;SDS011;51593;55.714;37.436;2022-08-20T01:18:42;27.30;;;17.38;;
65031;SDS011;51593;55.714;37.436;2022-08-20T01:21:09;26.15;;;16.90;;
65031;SDS011;51593;55.714;37.436;2022-08-20T01:23:38;28.25;;;15.98;;
65031;SDS011;51593;55.714;37.436;2022-08-20T01:31:06;27.40;;;16.05;;
65031;SDS011;51593;55.714;37.436;2022-08-20T01:33:33;23.63;;;15.05;;
65031;SDS011;51593;55.714;37.436;2022-08-20T01:35:59;22.23;;;14.70;;
65031;SDS011;51593;55.714;37.436;2022-08-20T01:38:25;21.60;;;15.00;;
65031;SDS011;51593;55.714;37.436;2022-08-20T01:43:57;29.90;;;14.43;;
65031;SDS011;51593;55.714;37.436;2022-08-20T01:46:28;22.73;;;14.10;;
65031;SDS011;51593;55.714;37.436;2022-08-20T01:48:57;21.83;;;14.43;;
65031;SDS011;51593;55.714;37.436;2022-08-20T01:51:26;31.90;;;14.88;;
65031;SDS011;51593;55.714;37.436;2022-08-20T01:53:54;20.88;;;13.40;;
65031;SDS011;51593;55.714;37.436;2022-08-20T01:56:24;19.75;;;13.32;;
65031;SDS011;51593;55.714;37.436;2022-08-20T01:58:53;23.33;;;13.23;;
65031;SDS011;51593;55.714;37.436;2022-08-20T02:01:22;16.80;;;13.07;;
65031;SDS011;51593;55.714;37.436;2022-08-20T02:04:14;20.63;;;11.80;;
65031;SDS011;51593;55.714;37.436;2022-08-20T02:06:47;16.80;;;10.95;;
65031;SDS011;51593;55.714;37.436;2022-08-20T02:09:15;22.75;;;12.25;;
65031;SDS011;51593;55.714;37.436;2022-08-20T02:11:42;16.38;;;11.30;;
65031;SDS011;51593;55.714;37.436;2022-08-20T02:14:08;21.02;;;11.77;;
65031;SDS011;51593;55.714;37.436;2022-08-20T02:16:37;20.02;;;10.52;;
65031;SDS011;51593;55.714;37.436;2022-08-20T02:19:09;18.75;;;11.00;;
65031;SDS011;51593;55.714;37.436;2022-08-20T02:21:39;15.88;;;9.88;;
65031;SDS011;51593;55.714;37.436;2022-08-20T02:24:07;12.88;;;10.00;;
65031;SDS011;51593;55.714;37.436;2022-08-20T02:26:33;24.65;;;10.60;;
65031;SDS011;51593;55.714;37.436;2022-08-20T02:29:03;17.48;;;9.82;;
65031;SDS011;51593;55.714;37.436;2022-08-20T02:31:31;15.10;;;9.80;;
65031;SDS011;51593;55.714;37.436;2022-08-20T02:33:57;16.15;;;8.98;;
65031;SDS011;51593;55.714;37.436;2022-08-20T02:36:24;12.90;;;9.05;;
65031;SDS011;51593;55.714;37.436;2022-08-20T02:38:52;14.25;;;8.48;;
65031;SDS011;51593;55.714;37.436;2022-08-20T02:41:18;15.40;;;8.82;;
65031;SDS011;51593;55.714;37.436;2022-08-20T02:43:46;13.48;;;7.50;;
65031;SDS011;51593;55.714;37.436;2022-08-20T02:46:13;14.38;;;7.75;;
65031;SDS011;51593;55.714;37.436;2022-08-20T02:48:41;16.98;;;7.70;;
65031;SDS011;51593;55.714;37.436;2022-08-20T02:51:08;14.25;;;7.78;;
65031;SDS011;51593;55.714;37.436;2022-08-20T02:53:35;16.88;;;7.93;;
65031;SDS011;51593;55.714;37.436;2022-08-20T02:56:03;15.80;;;7.82;;
65031;SDS011;51593;55.714;37.436;2022-08-20T02:58:32;14.27;;;7.68;;
65031;SDS011;51593;55.714;37.436;2022-08-20T03:01:00;14.43;;;7.65;;
65031;SDS011;51593;55.714;37.436;2022-08-20T03:03:28;16.90;;;8.02;;
65031;SDS011;51593;55.714;37.436;2022-08-20T03:05:54;14.55;;;8.07;;
65031;SDS011;51593;55.714;37.436;2022-08-20T03:08:21;19.13;;;9.35;;
65031;SDS011;51593;55.714;37.436;2022-08-20T03:10:49;18.13;;;9.35;;
65031;SDS011;51593;55.714;37.436;2022-08-20T03:13:16;21.98;;;10.85;;
65031;SDS011;51593;55.714;37.436;2022-08-20T03:15:44;23.67;;;13.55;;
65031;SDS011;51593;55.714;37.436;2022-08-20T03:18:11;29.52;;;18.08;;
65031;SDS011;51593;55.714;37.436;2022-08-20T03:20:38;31.75;;;19.42;;
65031;SDS011;51593;55.714;37.436;2022-08-20T03:23:04;34.83;;;22.00;;
65031;SDS011;51593;55.714;37.436;2022-08-20T03:25:30;35.83;;;23.90;;
65031;SDS011;51593;55.714;37.436;2022-08-20T03:27:57;46.60;;;27.83;;
65031;SDS011;51593;55.714;37.436;2022-08-20T03:30:42;40.03;;;27.10;;
65031;SDS011;51593;55.714;37.436;2022-08-20T03:33:08;43.03;;;27.30;;
65031;SDS011;51593;55.714;37.436;2022-08-20T03:35:34;42.00;;;28.90;;
65031;SDS011;51593;55.714;37.436;2022-08-20T03:38:07;47.03;;;30.63;;
65031;SDS011;51593;55.714;37.436;2022-08-20T03:40:34;43.20;;;28.92;;
65031;SDS011;51593;55.714;37.436;2022-08-20T03:43:00;42.40;;;29.70;;
65031;SDS011;51593;55.714;37.436;2022-08-20T03:45:26;42.35;;;30.27;;
65031;SDS011;51593;55.714;37.436;2022-08-20T03:47:53;42.35;;;28.27;;
65031;SDS011;51593;55.714;37.436;2022-08-20T03:50:20;46.13;;;28.98;;
65031;SDS011;51593;55.714;37.436;2022-08-20T03:52:57;40.88;;;28.75;;
65031;SDS011;51593;55.714;37.436;2022-08-20T03:55:24;43.03;;;28.58;;
65031;SDS011;51593;55.714;37.436;2022-08-20T03:57:55;46.85;;;29.83;;
65031;SDS011;51593;55.714;37.436;2022-08-20T04:00:24;39.88;;;28.10;;
65031;SDS011;51593;55.714;37.436;2022-08-20T04:03:10;49.83;;;29.50;;
65031;SDS011;51593;55.714;37.436;2022-08-20T04:05:37;46.75;;;26.52;;
65031;SDS011;51593;55.714;37.436;2022-08-20T04:08:05;38.70;;;26.38;;
65031;SDS011;51593;55.714;37.436;2022-08-20T04:10:36;38.25;;;24.05;;
65031;SDS011;51593;55.714;37.436;2022-08-20T04:13:03;39.03;;;22.02;;
65031;SDS011;51593;55.714;37.436;2022-08-20T04:15:29;32.67;;;21.98;;
65031;SDS011;51593;55.714;37.436;2022-08-20T04:17:56;30.20;;;21.20;;
65031;SDS011;51593;55.714;37.436;2022-08-20T04:20:23;34.38;;;20.35;;
65031;SDS011;51593;55.714;37.436;2022-08-20T04:22:51;33.05;;;20.63;;
65031;SDS011;51593;55.714;37.436;2022-08-20T04:25:18;34.35;;;21.02;;
65031;SDS011;51593;55.714;37.436;2022-08-20T04:27:45;35.20;;;20.38;;
65031;SDS011;51593;55.714;37.436;2022-08-20T04:30:12;33.33;;;19.85;;
65031;SDS011;51593;55.714;37.436;2022-08-20T04:32:39;32.20;;;20.27;;
65031;SDS011;51593;55.714;37.436;2022-08-20T04:35:14;32.58;;;20.00;;
65031;SDS011;51593;55.714;37.436;2022-08-20T04:37:42;37.72;;;21.08;;
65031;SDS011;51593;55.714;37.436;2022-08-20T04:40:15;34.35;;;20.00;;
65031;SDS011;51593;55.714;37.436;2022-08-20T04:43:00;29.95;;;19.90;;
65031;SDS011;51593;55.714;37.436;2022-08-20T04:45:29;33.45;;;19.98;;
65031;SDS011;51593;55.714;37.436;2022-08-20T04:47:56;32.28;;;20.15;;
65031;SDS011;51593;55.714;37.436;2022-08-20T04:50:22;31.48;;;19.08;;
65031;SDS011;51593;55.714;37.436;2022-08-20T04:52:51;32.00;;;20.23;;
65031;SDS011;51593;55.714;37.436;2022-08-20T04:55:17;31.27;;;19.35;;
65031;SDS011;51593;55.714;37.436;2022-08-20T04:57:45;30.13;;;18.45;;
65031;SDS011;51593;55.714;37.436;2022-08-20T05:00:13;30.67;;;17.17;;
65031;SDS011;51593;55.714;37.436;2022-08-20T05:02:41;27.90;;;17.85;;
65031;SDS011;51593;55.714;37.436;2022-08-20T05:05:07;22.95;;;16.45;;
65031;SDS011;51593;55.714;37.436;2022-08-20T05:07:38;27.15;;;16.85;;
65031;SDS011;51593;55.714;37.436;2022-08-20T05:10:06;27.02;;;16.55;;
65031;SDS011;51593;55.714;37.436;2022-08-20T05:12:33;32.38;;;16.20;;
65031;SDS011;51593;55.714;37.436;2022-08-20T05:14:59;24.70;;;16.27;;
65031;SDS011;51593;55.714;37.436;2022-08-20T05:17:25;32.25;;;16.38;;
65031;SDS011;51593;55.714;37.436;2022-08-20T05:19:51;32.00;;;15.93;;
65031;SDS011;51593;55.714;37.436;2022-08-20T05:22:42;29.88;;;14.93;;
65031;SDS011;51593;55.714;37.436;2022-08-20T05:25:09;31.75;;;15.15;;
65031;SDS011;51593;55.714;37.436;2022-08-20T05:27:38;21.77;;;14.95;;
65031;SDS011;51593;55.714;37.436;2022-08-20T05:30:07;23.77;;;13.88;;
65031;SDS011;51593;55.714;37.436;2022-08-20T05:32:35;29.02;;;14.52;;
65031;SDS011;51593;55.714;37.436;2022-08-20T05:35:04;24.00;;;13.38;;
65031;SDS011;51593;55.714;37.436;2022-08-20T05:37:34;27.95;;;13.52;;
65031;SDS011;51593;55.714;37.436;2022-08-20T05:40:05;23.58;;;12.85;;
65031;SDS011;51593;55.714;37.436;2022-08-20T05:45:03;25.33;;;13.55;;
65031;SDS011;51593;55.714;37.436;2022-08-20T05:47:31;22.25;;;12.38;;
65031;SDS011;51593;55.714;37.436;2022-08-20T05:49:57;24.77;;;14.05;;
65031;SDS011;51593;55.714;37.436;2022-08-20T05:52:23;23.92;;;13.10;;
65031;SDS011;51593;55.714;37.436;2022-08-20T05:54:49;23.95;;;13.35;;
65031;SDS011;51593;55.714;37.436;2022-08-20T05:57:17;22.05;;;13.70;;
65031;SDS011;51593;55.714;37.436;2022-08-20T05:59:44;24.35;;;13.18;;
65031;SDS011;51593;55.714;37.436;2022-08-20T06:02:10;22.63;;;13.10;;
65031;SDS011;51593;55.714;37.436;2022-08-20T06:04:54;25.63;;;13.23;;
65031;SDS011;51593;55.714;37.436;2022-08-20T06:07:20;25.00;;;13.77;;
65031;SDS011;51593;55.714;37.436;2022-08-20T06:09:47;25.35;;;12.55;;
65031;SDS011;51593;55.714;37.436;2022-08-20T06:12:13;23.48;;;13.00;;
65031;SDS011;51593;55.714;37.436;2022-08-20T06:14:39;20.75;;;11.80;;
65031;SDS011;51593;55.714;37.436;2022-08-20T06:17:06;27.50;;;12.55;;
65031;SDS011;51593;55.714;37.436;2022-08-20T06:19:37;29.67;;;12.50;;
65031;SDS011;51593;55.714;37.436;2022-08-20T06:22:15;20.60;;;10.90;;
65031;SDS011;51593;55.714;37.436;2022-08-20T06:24:41;19.05;;;10.65;;
65031;SDS011;51593;55.714;37.436;2022-08-20T06:27:07;20.73;;;9.88;;
65031;SDS011;51593;55.714;37.436;2022-08-20T06:29:34;14.80;;;9.77;;
65031;SDS011;51593;55.714;37.436;2022-08-20T06:32:00;18.40;;;10.18;;
65031;SDS011;51593;55.714;37.436;2022-08-20T06:34:27;16.58;;;8.75;;
65031;SDS011;51593;55.714;37.436;2022-08-20T06:36:53;17.08;;;8.80;;
65031;SDS011;51593;55.714;37.436;2022-08-20T06:39:20;19.55;;;9.05;;
65031;SDS011;51593;55.714;37.436;2022-08-20T06:41:46;17.70;;;9.45;;
65031;SDS011;51593;55.714;37.436;2022-08-20T06:44:11;26.58;;;9.18;;
65031;SDS011;51593;55.714;37.436;2022-08-20T06:46:38;19.98;;;8.88;;
65031;SDS011;51593;55.714;37.436;2022-08-20T06:49:24;17.00;;;8.98;;
65031;SDS011;51593;55.714;37.436;2022-08-20T06:51:59;19.45;;;8.60;;
65031;SDS011;51593;55.714;37.436;2022-08-20T06:54:25;18.55;;;8.95;;
65031;SDS011;51593;55.714;37.436;2022-08-20T06:56:51;18.55;;;7.68;;
65031;SDS011;51593;55.714;37.436;2022-08-20T06:59:31;16.00;;;7.65;;
65031;SDS011;51593;55.714;37.436;2022-08-20T07:01:57;20.35;;;7.70;;
65031;SDS011;51593;55.714;37.436;2022-08-20T07:04:23;18.90;;;7.38;;
65031;SDS011;51593;55.714;37.436;2022-08-20T07:06:51;16.25;;;8.30;;
65031;SDS011;51593;55.714;37.436;2022-08-20T07:09:18;21.27;;;7.20;;
65031;SDS011;51593;55.714;37.436;2022-08-20T07:11:44;20.48;;;7.70;;
65031;SDS011;51593;55.714;37.436;2022-08-20T07:14:10;18.17;;;6.97;;
65031;SDS011;51593;55.714;37.436;2022-08-20T07:16:36;17.20;;;7.30;;
65031;SDS011;51593;55.714;37.436;2022-08-20T07:19:02;16.52;;;7.38;;
65031;SDS011;51593;55.714;37.436;2022-08-20T07:21:28;18.10;;;6.57;;
65031;SDS011;51593;55.714;37.436;2022-08-20T07:23:54;17.92;;;7.28;;
65031;SDS011;51593;55.714;37.436;2022-08-20T07:26:20;12.05;;;5.85;;
65031;SDS011;51593;55.714;37.436;2022-08-20T07:28:46;16.95;;;6.28;;
65031;SDS011;51593;55.714;37.436;2022-08-20T07:31:12;24.17;;;6.70;;
65031;SDS011;51593;55.714;37.436;2022-08-20T07:33:57;22.15;;;6.55;;
65031;SDS011;51593;55.714;37.436;2022-08-20T07:36:23;16.13;;;5.90;;
65031;SDS011;51593;55.714;37.436;2022-08-20T07:38:49;14.73;;;6.18;;
65031;SDS011;51593;55.714;37.436;2022-08-20T07:41:17;11.68;;;5.70;;
65031;SDS011;51593;55.714;37.436;2022-08-20T07:43:44;15.85;;;5.70;;
65031;SDS011;51593;55.714;37.436;2022-08-20T07:46:12;15.73;;;5.72;;
65031;SDS011;51593;55.714;37.436;2022-08-20T07:48:41;12.45;;;5.43;;
65031;SDS011;51593;55.714;37.436;2022-08-20T07:51:14;21.27;;;5.50;;
65031;SDS011;51593;55.714;37.436;2022-08-20T07:53:42;14.45;;;5.20;;
65031;SDS011;51593;55.714;37.436;2022-08-20T07:56:09;14.38;;;5.60;;
65031;SDS011;51593;55.714;37.436;2022-08-20T07:58:43;15.93;;;5.15;;
65031;SDS011;51593;55.714;37.436;2022-08-20T08:01:26;12.73;;;5.18;;
65031;SDS011;51593;55.714;37.436;2022-08-20T08:03:54;16.38;;;5.30;;
65031;SDS011;51593;55.714;37.436;2022-08-20T08:06:22;12.15;;;4.85;;
65031;SDS011;51593;55.714;37.436;2022-08-20T08:08:48;12.25;;;5.00;;
65031;SDS011;51593;55.714;37.436;2022-08-20T08:11:14;13.55;;;5.20;;
65031;SDS011;51593;55.714;37.436;2022-08-20T08:13:41;15.38;;;5.28;;
65031;SDS011;51593;55.714;37.436;2022-08-20T08:16:08;14.23;;;5.07;;
65031;SDS011;51593;55.714;37.436;2022-08-20T08:18:35;28.35;;;6.03;;
65031;SDS011;51593;55.714;37.436;2022-08-20T08:21:06;15.88;;;4.70;;
65031;SDS011;51593;55.714;37.436;2022-08-20T08:23:34;17.80;;;5.20;;
65031;SDS011;51593;55.714;37.436;2022-08-20T08:26:00;13.15;;;5.18;;
65031;SDS011;51593;55.714;37.436;2022-08-20T08:28:26;17.75;;;5.18;;
65031;SDS011;51593;55.714;37.436;2022-08-20T08:30:54;10.30;;;5.07;;
65031;SDS011;51593;55.714;37.436;2022-08-20T08:33:21;14.90;;;5.70;;
65031;SDS011;51593;55.714;37.436;2022-08-20T08:36:05;15.27;;;5.70;;
65031;SDS011;51593;55.714;37.436;2022-08-20T08:38:40;24.27;;;6.55;;
65031;SDS011;51593;55.714;37.436;2022-08-20T08:41:16;13.60;;;5.53;;
65031;SDS011;51593;55.714;37.436;2022-08-20T08:44:06;11.23;;;6.07;;
65031;SDS011;51593;55.714;37.436;2022-08-20T08:46:37;16.48;;;5.45;;
65031;SDS011;51593;55.714;37.436;2022-08-20T08:49:05;18.08;;;5.85;;
65031;SDS011;51593;55.714;37.436;2022-08-20T08:52:06;15.80;;;5.80;;
65031;SDS011;51593;55.714;37.436;2022-08-20T08:54:29;17.17;;;6.45;;
65031;SDS011;51593;55.714;37.436;2022-08-20T08:56:56;18.17;;;6.35;;
65031;SDS011;51593;55.714;37.436;2022-08-20T08:59:23;16.40;;;6.30;;
65031;SDS011;51593;55.714;37.436;2022-08-20T09:01:53;17.83;;;6.05;;
65031;SDS011;51593;55.714;37.436;2022-08-20T09:04:20;18.83;;;6.38;;
65031;SDS011;51593;55.714;37.436;2022-08-20T09:06:48;21.30;;;7.07;;
65031;SDS011;51593;55.714;37.436;2022-08-20T09:09:17;14.00;;;6.60;;
65031;SDS011;51593;55.714;37.436;2022-08-20T09:12:23;12.45;;;6.80;;
65031;SDS011;51593;55.714;37.436;2022-08-20T09:14:52;17.63;;;7.45;;
65031;SDS011;51593;55.714;37.436;2022-08-20T09:17:19;16.55;;;7.70;;
65031;SDS011;51593;55.714;37.436;2022-08-20T09:19:47;15.10;;;8.10;;
65031;SDS011;51593;55.714;37.436;2022-08-20T09:22:17;15.95;;;7.93;;
65031;SDS011;51593;55.714;37.436;2022-08-20T09:24:46;17.20;;;8.18;;
65031;SDS011;51593;55.714;37.436;2022-08-20T09:27:12;15.30;;;8.57;;
65031;SDS011;51593;55.714;37.436;2022-08-20T09:29:40;20.27;;;9.20;;
65031;SDS011;51593;55.714;37.436;2022-08-20T09:32:08;20.38;;;9.32;;
65031;SDS011;51593;55.714;37.436;2022-08-20T09:34:46;23.23;;;9.90;;
65031;SDS011;51593;55.714;37.436;2022-08-20T09:37:16;19.17;;;10.10;;
65031;SDS011;51593;55.714;37.436;2022-08-20T09:39:42;21.13;;;10.75;;
65031;SDS011;51593;55.714;37.436;2022-08-20T09:42:15;19.50;;;11.68;;
65031;SDS011;51593;55.714;37.436;2022-08-20T09:44:43;20.52;;;12.20;;
65031;SDS011;51593;55.714;37.436;2022-08-20T09:47:09;22.85;;;11.90;;
65031;SDS011;51593;55.714;37.436;2022-08-20T09:49:38;18.77;;;11.70;;
65031;SDS011;51593;55.714;37.436;2022-08-20T09:52:04;18.88;;;11.88;;
65031;SDS011;51593;55.714;37.436;2022-08-20T09:54:32;27.02;;;13.30;;
65031;SDS011;51593;55.714;37.436;2022-08-20T09:56:59;18.00;;;11.80;;
65031;SDS011;51593;55.714;37.436;2022-08-20T09:59:28;24.30;;;12.52;;
65031;SDS011;51593;55.714;37.436;2022-08-20T10:01:55;19.88;;;12.55;;
65031;SDS011;51593;55.714;37.436;2022-08-20T10:04:21;24.75;;;12.88;;
65031;SDS011;51593;55.714;37.436;2022-08-20T10:06:47;24.42;;;12.68;;
65031;SDS011;51593;55.714;37.436;2022-08-20T10:09:13;29.00;;;13.25;;
65031;SDS011;51593;55.714;37.436;2022-08-20T10:11:40;23.65;;;13.27;;
65031;SDS011;51593;55.714;37.436;2022-08-20T10:14:06;28.70;;;12.73;;
65031;SDS011;51593;55.714;37.436;2022-08-20T10:16:34;20.75;;;13.13;;
65031;SDS011;51593;55.714;37.436;2022-08-20T10:19:01;25.08;;;12.82;;
65031;SDS011;51593;55.714;37.436;2022-08-20T10:21:28;24.98;;;12.27;;
65031;SDS011;51593;55.714;37.436;2022-08-20T10:23:55;21.00;;;13.25;;
65031;SDS011;51593;55.714;37.436;2022-08-20T10:26:21;23.73;;;13.23;;
65031;SDS011;51593;55.714;37.436;2022-08-20T10:28:47;24.25;;;12.50;;
65031;SDS011;51593;55.714;37.436;2022-08-20T10:31:12;20.52;;;13.05;;
65031;SDS011;51593;55.714;37.436;2022-08-20T10:33:53;19.10;;;12.77;;
65031;SDS011;51593;55.714;37.436;2022-08-20T10:36:18;23.52;;;12.82;;
65031;SDS011;51593;55.714;37.436;2022-08-20T10:38:44;23.27;;;13.43;;
65031;SDS011;51593;55.714;37.436;2022-08-20T10:41:10;20.58;;;13.50;;
65031;SDS011;51593;55.714;37.436;2022-08-20T10:43:36;20.20;;;12.30;;
65031;SDS011;51593;55.714;37.436;2022-08-20T10:46:25;20.30;;;12.52;;
65031;SDS011;51593;55.714;37.436;2022-08-20T10:48:50;20.15;;;12.45;;
65031;SDS011;51593;55.714;37.436;2022-08-20T10:51:17;25.50;;;13.25;;
65031;SDS011;51593;55.714;37.436;2022-08-20T10:53:43;20.27;;;11.65;;
65031;SDS011;51593;55.714;37.436;2022-08-20T10:56:08;22.85;;;11.02;;
65031;SDS011;51593;55.714;37.436;2022-08-20T10:58:34;23.83;;;10.98;;
65031;SDS011;51593;55.714;37.436;2022-08-20T11:01:00;19.48;;;11.00;;
65031;SDS011;51593;55.714;37.436;2022-08-20T11:03:26;18.98;;;10.60;;
65031;SDS011;51593;55.714;37.436;2022-08-20T11:05:52;15.38;;;9.75;;
65031;SDS011;51593;55.714;37.436;2022-08-20T11:08:17;18.23;;;10.15;;
65031;SDS011;51593;55.714;37.436;2022-08-20T11:10:44;23.10;;;10.32;;
65031;SDS011;51593;55.714;37.436;2022-08-20T11:13:09;18.08;;;9.52;;
65031;SDS011;51593;55.714;37.436;2022-08-20T11:16:14;19.27;;;10.27;;
65031;SDS011;51593;55.714;37.436;2022-08-20T11:18:40;19.48;;;9.68;;
65031;SDS011;51593;55.714;37.436;2022-08-20T11:21:06;17.60;;;9.25;;
65031;SDS011;51593;55.714;37.436;2022-08-20T11:23:32;17.83;;;9.52;;
65031;SDS011;51593;55.714;37.436;2022-08-20T11:25:58;14.18;;;8.35;;
65031;SDS011;51593;55.714;37.436;2022-08-20T11:28:24;15.82;;;8.30;;
65031;SDS011;51593;55.714;37.436;2022-08-20T11:30:54;14.45;;;8.23;;
65031;SDS011;51593;55.714;37.436;2022-08-20T11:33:21;11.57;;;7.28;;
65031;SDS011;51593;55.714;37.436;2022-08-20T11:35:47;15.80;;;8.80;;
65031;SDS011;51593;55.714;37.436;2022-08-20T11:38:13;12.93;;;7.38;;
65031;SDS011;51593;55.714;37.436;2022-08-20T11:40:39;15.13;;;7.32;;
65031;SDS011;51593;55.714;37.436;2022-08-20T11:43:05;16.20;;;7.05;;
65031;SDS011;51593;55.714;37.436;2022-08-20T11:45:31;11.38;;;6.57;;
65031;SDS011;51593;55.714;37.436;2022-08-20T11:47:56;14.80;;;6.68;;
65031;SDS011;51593;55.714;37.436;2022-08-20T11:50:22;12.00;;;6.40;;
65031;SDS011;51593;55.714;37.436;2022-08-20T11:52:48;11.48;;;6.30;;
65031;SDS011;51593;55.714;37.436;2022-08-20T11:55:14;17.40;;;6.20;;
65031;SDS011;51593;55.714;37.436;2022-08-20T11:57:43;12.73;;;5.65;;
65031;SDS011;51593;55.714;37.436;2022-08-20T12:00:13;15.85;;;5.97;;
65031;SDS011;51593;55.714;37.436;2022-08-20T12:02:41;12.20;;;5.30;;
65031;SDS011;51593;55.714;37.436;2022-08-20T12:05:08;13.38;;;5.20;;
65031;SDS011;51593;55.714;37.436;2022-08-20T12:07:34;11.25;;;5.35;;
65031;SDS011;51593;55.714;37.436;2022-08-20T12:10:00;12.35;;;5.13;;
65031;SDS011;51593;55.714;37.436;2022-08-20T12:12:26;8.60;;;4.68;;
65031;SDS011;51593;55.714;37.436;2022-08-20T12:14:52;16.52;;;5.22;;
65031;SDS011;51593;55.714;37.436;2022-08-20T12:17:20;12.27;;;4.78;;
65031;SDS011;51593;55.714;37.436;2022-08-20T12:19:49;14.02;;;4.82;;
65031;SDS011;51593;55.714;37.436;2022-08-20T12:22:16;12.15;;;4.53;;
65031;SDS011;51593;55.714;37.436;2022-08-20T12:24:42;10.32;;;4.80;;
65031;SDS011;51593;55.714;37.436;2022-08-20T12:29:42;12.05;;;4.82;;
65031;SDS011;51593;55.714;37.436;2022-08-20T12:32:32;9.98;;;4.72;;
65031;SDS011;51593;55.714;37.436;2022-08-20T12:34:58;15.77;;;5.10;;
65031;SDS011;51593;55.714;37.436;2022-08-20T12:37:26;8.93;;;4.53;;
65031;SDS011;51593;55.714;37.436;2022-08-20T12:39:56;17.00;;;5.15;;
65031;SDS011;51593;55.714;37.436;2022-08-20T12:42:23;18.50;;;5.22;;
65031;SDS011;51593;55.714;37.436;2022-08-20T12:44:50;19.20;;;5.20;;
65031;SDS011;51593;55.714;37.436;2022-08-20T12:47:18;14.13;;;5.25;;
65031;SDS011;51593;55.714;37.436;2022-08-20T12:49:51;13.30;;;5.13;;
65031;SDS011;51593;55.714;37.436;2022-08-20T12:52:19;16.90;;;5.07;;
65031;SDS011;51593;55.714;37.436;2022-08-20T12:54:46;12.80;;;5.45;;
65031;SDS011;51593;55.714;37.436;2022-08-20T12:57:21;14.52;;;4.95;;
65031;SDS011;51593;55.714;37.436;2022-08-20T13:00:06;13.60;;;4.82;;
65031;SDS011;51593;55.714;37.436;2022-08-20T13:02:32;22.98;;;5.20;;
65031;SDS011;51593;55.714;37.436;2022-08-20T13:04:58;15.85;;;4.97;;
65031;SDS011;51593;55.714;37.436;2022-08-20T13:07:24;14.50;;;4.65;;
65031;SDS011;51593;55.714;37.436;2022-08-20T13:09:50;11.50;;;5.03;;
65031;SDS011;51593;55.714;37.436;2022-08-20T13:12:16;11.57;;;4.95;;
65031;SDS011;51593;55.714;37.436;2022-08-20T13:14:42;17.58;;;5.20;;
65031;SDS011;51593;55.714;37.436;2022-08-20T13:17:08;13.25;;;5.25;;
65031;SDS011;51593;55.714;37.436;2022-08-20T13:19:35;16.55;;;5.03;;
65031;SDS011;51593;55.714;37.436;2022-08-20T13:22:02;14.05;;;5.40;;
65031;SDS011;51593;55.714;37.436;2022-08-20T13:24:28;16.90;;;5.65;;
65031;SDS011;51593;55.714;37.436;2022-08-20T13:27:06;16.67;;;5.45;;
65031;SDS011;51593;55.714;37.436;2022-08-20T13:29:34;13.75;;;5.65;;
65031;SDS011;51593;55.714;37.436;2022-08-20T13:32:00;20.58;;;6.05;;
65031;SDS011;51593;55.714;37.436;2022-08-20T13:34:26;15.73;;;6.47;;
65031;SDS011;51593;55.714;37.436;2022-08-20T13:36:51;21.58;;;6.38;;
65031;SDS011;51593;55.714;37.436;2022-08-20T13:39:19;16.27;;;6.40;;
65031;SDS011;51593;55.714;37.436;2022-08-20T13:41:46;18.98;;;6.75;;
65031;SDS011;51593;55.714;37.436;2022-08-20T13:44:11;18.05;;;7.50;;
65031;SDS011;51593;55.714;37.436;2022-08-20T13:46:37;20.83;;;7.60;;
65031;SDS011;51593;55.714;37.436;2022-08-20T13:49:03;18.92;;;8.05;;
65031;SDS011;51593;55.714;37.436;2022-08-20T13:51:29;18.00;;;8.50;;
65031;SDS011;51593;55.714;37.436;2022-08-20T13:53:54;15.50;;;8.50;;
65031;SDS011;51593;55.714;37.436;2022-08-20T13:56:21;14.52;;;8.88;;
65031;SDS011;51593;55.714;37.436;2022-08-20T13:58:47;16.38;;;9.25;;
65031;SDS011;51593;55.714;37.436;2022-08-20T14:01:13;20.58;;;10.10;;
65031;SDS011;51593;55.714;37.436;2022-08-20T14:03:39;17.88;;;10.75;;
65031;SDS011;51593;55.714;37.436;2022-08-20T14:06:14;22.30;;;11.57;;
65031;SDS011;51593;55.714;37.436;2022-08-20T14:08:39;23.25;;;10.63;;
65031;SDS011;51593;55.714;37.436;2022-08-20T14:11:07;20.85;;;11.15;;
65031;SDS011;51593;55.714;37.436;2022-08-20T14:13:33;19.85;;;10.75;;
65031;SDS011;51593;55.714;37.436;2022-08-20T14:15:59;18.70;;;11.70;;
65031;SDS011;51593;55.714;37.436;2022-08-20T14:18:24;18.45;;;10.35;;
65031;SDS011;51593;55.714;37.436;2022-08-20T14:20:50;18.70;;;10.88;;
65031;SDS011;51593;55.714;37.436;2022-08-20T14:23:16;18.83;;;11.48;;
65031;SDS011;51593;55.714;37.436;2022-08-20T14:25:45;19.02;;;10.60;;
65031;SDS011;51593;55.714;37.436;2022-08-20T14:28:17;18.80;;;10.88;;
65031;SDS011;51593;55.714;37.436;2022-08-20T14:30:49;19.70;;;10.45;;
65031;SDS011;51593;55.714;37.436;2022-08-20T14:33:15;20.45;;;10.48;;
65031;SDS011;51593;55.714;37.436;2022-08-20T14:35:41;14.60;;;10.05;;
65031;SDS011;51593;55.714;37.436;2022-08-20T14:38:07;20.88;;;9.85;;
65031;SDS011;51593;55.714;37.436;2022-08-20T14:40:36;23.17;;;10.13;;